OICS  Sanandaj  Airport

Iran

Add Bookmark
ICAO OICS
IATA SDG
Type Airport
Status Operational
Latitude
35° 14' 45" N
35.245899
Longitude
47° 0' 33" E
47.009201
Local (DST + 5) UTC (GMT + 4)
Aug 29, 2015 01:49 Aug 29, 2015 09:19
Sunrise-Sunset Local UTC
Begin Civil Twilight 06:24 01:54
Sunrise 06:50 02:20
Sunset 07:55 15:25
End Civil Twilight 08:21 15:51
VFR
VFR
MVFR
MVFR
IFR
IFR
LIFR
LIFR
Unknown
Unavailable

Current Weather

METAR Observed VFR
OICS 290900Z 17004KT 9999 FEW040 32/02 Q1017 Sat, Aug 29, 2015 @ 09:00 UTC
(19 Minutes ago)
Visual Flight Rules
Wind Visibility Clouds Conditions
170° at 4 knots (7 kph) 10 km or more
  • Few at 4,000 ft AGL
  • No significant weather
Temperatures Readings Precipitation
Current Temp
32°C
90°F
Dewpoint
2°C
36°F
Humidity 15%
Altimeter 30.03" Hg
Sea Level Pressure 1,017 mb
Field Elevation
1,373 m
4,505 ft
None Recorded
-
-

CheckWX.com is intended as a tool to help pilots better visualize weather data. It is not intended as a substitute for an official weather briefing obtained from a Flight Service Station. CheckWX.com does not meet the FAA requirements for an official pre-flight weather briefing. Therefore, it's important that pilots still call and obtain an official FSS pre-flight weather briefing.

© 2007-2015 CheckWX.com
09:19:52 UTC